sensor_id;sensor_type;location;lat;lon;timestamp;P1;durP1;ratioP1;P2;durP2;ratioP2
64197;SDS011;50512;53.666;9.700;2023-11-21T00:00:22;69.63;;;22.45;;
64197;SDS011;50512;53.666;9.700;2023-11-21T00:02:49;61.28;;;20.73;;
64197;SDS011;50512;53.666;9.700;2023-11-21T00:05:16;60.50;;;18.80;;
64197;SDS011;50512;53.666;9.700;2023-11-21T00:07:43;55.80;;;20.08;;
64197;SDS011;50512;53.666;9.700;2023-11-21T00:10:10;51.10;;;19.10;;
64197;SDS011;50512;53.666;9.700;2023-11-21T00:12:39;50.65;;;17.67;;
64197;SDS011;50512;53.666;9.700;2023-11-21T00:15:07;50.65;;;17.65;;
64197;SDS011;50512;53.666;9.700;2023-11-21T00:17:36;46.83;;;17.40;;
64197;SDS011;50512;53.666;9.700;2023-11-21T00:20:03;48.00;;;17.15;;
64197;SDS011;50512;53.666;9.700;2023-11-21T00:22:32;44.30;;;16.92;;
64197;SDS011;50512;53.666;9.700;2023-11-21T00:24:59;45.85;;;17.30;;
64197;SDS011;50512;53.666;9.700;2023-11-21T00:27:26;48.33;;;17.73;;
64197;SDS011;50512;53.666;9.700;2023-11-21T00:29:52;42.60;;;16.58;;
64197;SDS011;50512;53.666;9.700;2023-11-21T00:32:18;37.33;;;15.52;;
64197;SDS011;50512;53.666;9.700;2023-11-21T00:34:45;33.63;;;14.35;;
64197;SDS011;50512;53.666;9.700;2023-11-21T00:37:11;32.80;;;13.82;;
64197;SDS011;50512;53.666;9.700;2023-11-21T00:39:39;29.15;;;13.07;;
64197;SDS011;50512;53.666;9.700;2023-11-21T00:42:06;30.48;;;12.57;;
64197;SDS011;50512;53.666;9.700;2023-11-21T00:44:33;32.00;;;14.25;;
64197;SDS011;50512;53.666;9.700;2023-11-21T00:47:00;30.95;;;11.18;;
64197;SDS011;50512;53.666;9.700;2023-11-21T00:49:28;23.42;;;10.68;;
64197;SDS011;50512;53.666;9.700;2023-11-21T00:51:54;30.40;;;14.15;;
64197;SDS011;50512;53.666;9.700;2023-11-21T00:54:20;27.80;;;11.93;;
64197;SDS011;50512;53.666;9.700;2023-11-21T00:56:49;31.77;;;14.23;;
64197;SDS011;50512;53.666;9.700;2023-11-21T00:59:16;25.90;;;11.98;;
64197;SDS011;50512;53.666;9.700;2023-11-21T01:01:42;28.52;;;12.38;;
64197;SDS011;50512;53.666;9.700;2023-11-21T01:04:09;28.02;;;12.98;;
64197;SDS011;50512;53.666;9.700;2023-11-21T01:06:35;27.75;;;12.73;;
64197;SDS011;50512;53.666;9.700;2023-11-21T01:09:02;23.48;;;11.88;;
64197;SDS011;50512;53.666;9.700;2023-11-21T01:11:32;24.67;;;11.30;;
64197;SDS011;50512;53.666;9.700;2023-11-21T01:14:02;23.52;;;10.95;;
64197;SDS011;50512;53.666;9.700;2023-11-21T01:16:29;27.40;;;11.13;;
64197;SDS011;50512;53.666;9.700;2023-11-21T01:18:57;28.80;;;12.98;;
64197;SDS011;50512;53.666;9.700;2023-11-21T01:21:24;31.52;;;12.45;;
64197;SDS011;50512;53.666;9.700;2023-11-21T01:23:50;30.30;;;12.68;;
64197;SDS011;50512;53.666;9.700;2023-11-21T01:26:17;34.38;;;13.05;;
64197;SDS011;50512;53.666;9.700;2023-11-21T01:28:43;34.00;;;13.27;;
64197;SDS011;50512;53.666;9.700;2023-11-21T01:31:11;38.35;;;14.35;;
64197;SDS011;50512;53.666;9.700;2023-11-21T01:33:37;35.50;;;14.52;;
64197;SDS011;50512;53.666;9.700;2023-11-21T01:36:04;31.27;;;12.77;;
64197;SDS011;50512;53.666;9.700;2023-11-21T01:38:31;27.88;;;10.45;;
64197;SDS011;50512;53.666;9.700;2023-11-21T01:40:58;34.63;;;13.10;;
64197;SDS011;50512;53.666;9.700;2023-11-21T01:43:25;30.17;;;12.48;;
64197;SDS011;50512;53.666;9.700;2023-11-21T01:45:52;30.25;;;12.88;;
64197;SDS011;50512;53.666;9.700;2023-11-21T01:48:23;27.85;;;11.43;;
64197;SDS011;50512;53.666;9.700;2023-11-21T01:50:49;26.95;;;11.88;;
64197;SDS011;50512;53.666;9.700;2023-11-21T01:53:16;26.98;;;11.98;;
64197;SDS011;50512;53.666;9.700;2023-11-21T01:55:43;25.40;;;10.70;;
64197;SDS011;50512;53.666;9.700;2023-11-21T01:58:11;32.08;;;12.13;;
64197;SDS011;50512;53.666;9.700;2023-11-21T02:00:38;25.83;;;10.80;;
64197;SDS011;50512;53.666;9.700;2023-11-21T02:03:05;22.45;;;8.63;;
64197;SDS011;50512;53.666;9.700;2023-11-21T02:05:33;26.20;;;10.00;;
64197;SDS011;50512;53.666;9.700;2023-11-21T02:08:00;22.15;;;8.77;;
64197;SDS011;50512;53.666;9.700;2023-11-21T02:10:27;26.45;;;10.10;;
64197;SDS011;50512;53.666;9.700;2023-11-21T02:12:56;19.52;;;8.23;;
64197;SDS011;50512;53.666;9.700;2023-11-21T02:15:23;19.17;;;9.30;;
64197;SDS011;50512;53.666;9.700;2023-11-21T02:17:53;18.35;;;8.85;;
64197;SDS011;50512;53.666;9.700;2023-11-21T02:20:20;18.40;;;8.18;;
64197;SDS011;50512;53.666;9.700;2023-11-21T02:22:51;17.30;;;8.50;;
64197;SDS011;50512;53.666;9.700;2023-11-21T02:25:21;20.50;;;8.60;;
64197;SDS011;50512;53.666;9.700;2023-11-21T02:27:47;19.17;;;8.73;;
64197;SDS011;50512;53.666;9.700;2023-11-21T02:30:14;18.77;;;8.60;;
64197;SDS011;50512;53.666;9.700;2023-11-21T02:32:41;18.45;;;7.88;;
64197;SDS011;50512;53.666;9.700;2023-11-21T02:35:07;16.00;;;8.00;;
64197;SDS011;50512;53.666;9.700;2023-11-21T02:37:34;16.38;;;7.50;;
64197;SDS011;50512;53.666;9.700;2023-11-21T02:40:02;16.73;;;7.18;;
64197;SDS011;50512;53.666;9.700;2023-11-21T02:42:31;16.85;;;7.80;;
64197;SDS011;50512;53.666;9.700;2023-11-21T02:44:57;17.35;;;8.00;;
64197;SDS011;50512;53.666;9.700;2023-11-21T02:47:24;19.08;;;7.57;;
64197;SDS011;50512;53.666;9.700;2023-11-21T02:49:50;13.98;;;7.28;;
64197;SDS011;50512;53.666;9.700;2023-11-21T02:52:17;14.52;;;6.75;;
64197;SDS011;50512;53.666;9.700;2023-11-21T02:54:44;14.50;;;6.35;;
64197;SDS011;50512;53.666;9.700;2023-11-21T02:57:11;15.57;;;7.18;;
64197;SDS011;50512;53.666;9.700;2023-11-21T02:59:38;13.13;;;6.18;;
64197;SDS011;50512;53.666;9.700;2023-11-21T03:02:04;14.85;;;6.95;;
64197;SDS011;50512;53.666;9.700;2023-11-21T03:04:33;13.50;;;6.72;;
64197;SDS011;50512;53.666;9.700;2023-11-21T03:07:00;14.18;;;7.53;;
64197;SDS011;50512;53.666;9.700;2023-11-21T03:09:26;14.82;;;7.10;;
64197;SDS011;50512;53.666;9.700;2023-11-21T03:11:53;14.73;;;7.38;;
64197;SDS011;50512;53.666;9.700;2023-11-21T03:14:21;14.32;;;7.22;;
64197;SDS011;50512;53.666;9.700;2023-11-21T03:16:47;14.18;;;7.25;;
64197;SDS011;50512;53.666;9.700;2023-11-21T03:19:14;16.55;;;7.57;;
64197;SDS011;50512;53.666;9.700;2023-11-21T03:21:41;16.33;;;7.40;;
64197;SDS011;50512;53.666;9.700;2023-11-21T03:24:07;19.75;;;7.95;;
64197;SDS011;50512;53.666;9.700;2023-11-21T03:26:34;17.92;;;7.60;;
64197;SDS011;50512;53.666;9.700;2023-11-21T03:29:02;16.10;;;8.02;;
64197;SDS011;50512;53.666;9.700;2023-11-21T03:31:31;16.35;;;7.70;;
64197;SDS011;50512;53.666;9.700;2023-11-21T03:33:57;16.77;;;7.85;;
64197;SDS011;50512;53.666;9.700;2023-11-21T03:36:24;15.30;;;8.40;;
64197;SDS011;50512;53.666;9.700;2023-11-21T03:38:50;17.17;;;8.07;;
64197;SDS011;50512;53.666;9.700;2023-11-21T03:41:17;19.75;;;8.15;;
64197;SDS011;50512;53.666;9.700;2023-11-21T03:43:43;16.83;;;8.10;;
64197;SDS011;50512;53.666;9.700;2023-11-21T03:46:10;15.68;;;7.28;;
64197;SDS011;50512;53.666;9.700;2023-11-21T03:48:38;17.67;;;7.70;;
64197;SDS011;50512;53.666;9.700;2023-11-21T03:51:05;19.45;;;8.75;;
64197;SDS011;50512;53.666;9.700;2023-11-21T03:53:32;17.00;;;8.27;;
64197;SDS011;50512;53.666;9.700;2023-11-21T03:55:58;15.95;;;7.47;;
64197;SDS011;50512;53.666;9.700;2023-11-21T03:58:26;14.45;;;7.63;;
64197;SDS011;50512;53.666;9.700;2023-11-21T04:00:52;18.23;;;8.40;;
64197;SDS011;50512;53.666;9.700;2023-11-21T04:03:19;16.98;;;9.07;;
64197;SDS011;50512;53.666;9.700;2023-11-21T04:05:47;18.10;;;8.48;;
64197;SDS011;50512;53.666;9.700;2023-11-21T04:08:13;17.75;;;9.27;;
64197;SDS011;50512;53.666;9.700;2023-11-21T04:10:40;16.30;;;8.27;;
64197;SDS011;50512;53.666;9.700;2023-11-21T04:13:07;18.05;;;9.10;;
64197;SDS011;50512;53.666;9.700;2023-11-21T04:15:33;17.00;;;8.88;;
64197;SDS011;50512;53.666;9.700;2023-11-21T04:18:00;17.63;;;8.75;;
64197;SDS011;50512;53.666;9.700;2023-11-21T04:20:26;17.10;;;8.50;;
64197;SDS011;50512;53.666;9.700;2023-11-21T04:22:54;18.27;;;8.68;;
64197;SDS011;50512;53.666;9.700;2023-11-21T04:25:21;17.70;;;9.60;;
64197;SDS011;50512;53.666;9.700;2023-11-21T04:27:48;20.70;;;8.55;;
64197;SDS011;50512;53.666;9.700;2023-11-21T04:30:15;14.85;;;6.95;;
64197;SDS011;50512;53.666;9.700;2023-11-21T04:32:41;15.38;;;7.68;;
64197;SDS011;50512;53.666;9.700;2023-11-21T04:35:08;18.55;;;8.35;;
64197;SDS011;50512;53.666;9.700;2023-11-21T04:37:35;16.10;;;8.10;;
64197;SDS011;50512;53.666;9.700;2023-11-21T04:40:03;15.05;;;8.18;;
64197;SDS011;50512;53.666;9.700;2023-11-21T04:42:33;15.93;;;8.45;;
64197;SDS011;50512;53.666;9.700;2023-11-21T04:45:00;15.63;;;8.55;;
64197;SDS011;50512;53.666;9.700;2023-11-21T04:47:26;17.42;;;8.20;;
64197;SDS011;50512;53.666;9.700;2023-11-21T04:49:52;17.95;;;7.93;;
64197;SDS011;50512;53.666;9.700;2023-11-21T04:52:20;17.80;;;8.32;;
64197;SDS011;50512;53.666;9.700;2023-11-21T04:54:46;15.23;;;8.13;;
64197;SDS011;50512;53.666;9.700;2023-11-21T04:57:14;17.33;;;9.02;;
64197;SDS011;50512;53.666;9.700;2023-11-21T04:59:43;14.07;;;7.13;;
64197;SDS011;50512;53.666;9.700;2023-11-21T05:02:09;14.85;;;7.65;;
64197;SDS011;50512;53.666;9.700;2023-11-21T05:04:36;15.23;;;7.65;;
64197;SDS011;50512;53.666;9.700;2023-11-21T05:07:02;16.25;;;7.90;;
64197;SDS011;50512;53.666;9.700;2023-11-21T05:09:29;16.70;;;7.75;;
64197;SDS011;50512;53.666;9.700;2023-11-21T05:11:57;13.60;;;7.45;;
64197;SDS011;50512;53.666;9.700;2023-11-21T05:14:25;18.48;;;8.10;;
64197;SDS011;50512;53.666;9.700;2023-11-21T05:16:51;17.83;;;8.70;;
64197;SDS011;50512;53.666;9.700;2023-11-21T05:19:18;14.82;;;7.30;;
64197;SDS011;50512;53.666;9.700;2023-11-21T05:21:44;14.98;;;7.40;;
64197;SDS011;50512;53.666;9.700;2023-11-21T05:24:11;17.35;;;8.07;;
64197;SDS011;50512;53.666;9.700;2023-11-21T05:26:37;15.48;;;7.57;;
64197;SDS011;50512;53.666;9.700;2023-11-21T05:29:04;15.07;;;8.32;;
64197;SDS011;50512;53.666;9.700;2023-11-21T05:31:32;15.40;;;7.80;;
64197;SDS011;50512;53.666;9.700;2023-11-21T05:33:58;15.80;;;7.43;;
64197;SDS011;50512;53.666;9.700;2023-11-21T05:36:25;16.55;;;8.27;;
64197;SDS011;50512;53.666;9.700;2023-11-21T05:38:51;15.98;;;8.98;;
64197;SDS011;50512;53.666;9.700;2023-11-21T05:41:17;17.45;;;8.65;;
64197;SDS011;50512;53.666;9.700;2023-11-21T05:43:44;16.20;;;7.97;;
64197;SDS011;50512;53.666;9.700;2023-11-21T05:46:10;17.70;;;8.18;;
64197;SDS011;50512;53.666;9.700;2023-11-21T05:48:39;15.90;;;7.40;;
64197;SDS011;50512;53.666;9.700;2023-11-21T05:51:07;17.73;;;8.60;;
64197;SDS011;50512;53.666;9.700;2023-11-21T05:53:34;15.65;;;7.63;;
64197;SDS011;50512;53.666;9.700;2023-11-21T05:56:00;15.35;;;7.55;;
64197;SDS011;50512;53.666;9.700;2023-11-21T05:58:28;14.32;;;8.15;;
64197;SDS011;50512;53.666;9.700;2023-11-21T06:00:55;17.88;;;8.18;;
64197;SDS011;50512;53.666;9.700;2023-11-21T06:03:22;15.02;;;8.00;;
64197;SDS011;50512;53.666;9.700;2023-11-21T06:05:50;15.32;;;8.15;;
64197;SDS011;50512;53.666;9.700;2023-11-21T06:08:16;16.27;;;8.05;;
64197;SDS011;50512;53.666;9.700;2023-11-21T06:10:43;14.93;;;8.23;;
64197;SDS011;50512;53.666;9.700;2023-11-21T06:13:14;14.98;;;8.10;;
64197;SDS011;50512;53.666;9.700;2023-11-21T06:15:40;14.60;;;7.90;;
64197;SDS011;50512;53.666;9.700;2023-11-21T06:18:07;14.57;;;8.00;;
64197;SDS011;50512;53.666;9.700;2023-11-21T06:20:35;14.15;;;7.18;;
64197;SDS011;50512;53.666;9.700;2023-11-21T06:23:03;15.10;;;8.00;;
64197;SDS011;50512;53.666;9.700;2023-11-21T06:25:30;14.07;;;7.13;;
64197;SDS011;50512;53.666;9.700;2023-11-21T06:27:58;16.98;;;8.45;;
64197;SDS011;50512;53.666;9.700;2023-11-21T06:30:24;15.68;;;8.40;;
64197;SDS011;50512;53.666;9.700;2023-11-21T06:32:51;25.90;;;8.82;;
64197;SDS011;50512;53.666;9.700;2023-11-21T06:35:17;16.08;;;7.97;;
64197;SDS011;50512;53.666;9.700;2023-11-21T06:37:44;15.70;;;7.45;;
64197;SDS011;50512;53.666;9.700;2023-11-21T06:40:14;14.65;;;7.03;;
64197;SDS011;50512;53.666;9.700;2023-11-21T06:42:41;14.57;;;7.50;;
64197;SDS011;50512;53.666;9.700;2023-11-21T06:45:09;17.17;;;8.20;;
64197;SDS011;50512;53.666;9.700;2023-11-21T06:47:36;16.60;;;8.13;;
64197;SDS011;50512;53.666;9.700;2023-11-21T06:50:03;15.18;;;8.50;;
64197;SDS011;50512;53.666;9.700;2023-11-21T06:52:30;19.42;;;8.95;;
64197;SDS011;50512;53.666;9.700;2023-11-21T06:54:56;19.13;;;9.15;;
64197;SDS011;50512;53.666;9.700;2023-11-21T06:57:24;17.45;;;8.57;;
64197;SDS011;50512;53.666;9.700;2023-11-21T06:59:50;16.90;;;8.85;;
64197;SDS011;50512;53.666;9.700;2023-11-21T07:02:17;16.23;;;8.60;;
64197;SDS011;50512;53.666;9.700;2023-11-21T07:04:44;16.67;;;8.82;;
64197;SDS011;50512;53.666;9.700;2023-11-21T07:07:11;18.92;;;9.35;;
64197;SDS011;50512;53.666;9.700;2023-11-21T07:09:38;17.52;;;9.38;;
64197;SDS011;50512;53.666;9.700;2023-11-21T07:12:05;18.52;;;9.98;;
64197;SDS011;50512;53.666;9.700;2023-11-21T07:14:34;21.23;;;10.10;;
64197;SDS011;50512;53.666;9.700;2023-11-21T07:17:00;22.05;;;10.52;;
64197;SDS011;50512;53.666;9.700;2023-11-21T07:19:27;19.38;;;9.82;;
64197;SDS011;50512;53.666;9.700;2023-11-21T07:21:54;19.63;;;9.32;;
64197;SDS011;50512;53.666;9.700;2023-11-21T07:24:20;21.73;;;9.85;;
64197;SDS011;50512;53.666;9.700;2023-11-21T07:26:48;24.25;;;9.85;;
64197;SDS011;50512;53.666;9.700;2023-11-21T07:29:14;17.92;;;8.52;;
64197;SDS011;50512;53.666;9.700;2023-11-21T07:31:42;23.48;;;10.45;;
64197;SDS011;50512;53.666;9.700;2023-11-21T07:34:08;20.10;;;9.73;;
64197;SDS011;50512;53.666;9.700;2023-11-21T07:36:37;19.63;;;9.60;;
64197;SDS011;50512;53.666;9.700;2023-11-21T07:39:03;22.42;;;10.35;;
64197;SDS011;50512;53.666;9.700;2023-11-21T07:41:31;21.73;;;9.18;;
64197;SDS011;50512;53.666;9.700;2023-11-21T07:43:58;19.92;;;9.25;;
64197;SDS011;50512;53.666;9.700;2023-11-21T07:46:24;18.17;;;8.38;;
64197;SDS011;50512;53.666;9.700;2023-11-21T07:48:53;21.80;;;9.85;;
64197;SDS011;50512;53.666;9.700;2023-11-21T07:51:20;17.35;;;8.93;;
64197;SDS011;50512;53.666;9.700;2023-11-21T07:53:47;18.65;;;9.43;;
64197;SDS011;50512;53.666;9.700;2023-11-21T07:56:13;18.10;;;9.02;;
64197;SDS011;50512;53.666;9.700;2023-11-21T07:58:40;17.63;;;7.93;;
64197;SDS011;50512;53.666;9.700;2023-11-21T08:01:06;14.50;;;7.70;;
64197;SDS011;50512;53.666;9.700;2023-11-21T08:03:33;14.82;;;7.25;;
64197;SDS011;50512;53.666;9.700;2023-11-21T08:06:00;16.85;;;8.50;;
64197;SDS011;50512;53.666;9.700;2023-11-21T08:08:28;18.90;;;7.93;;
64197;SDS011;50512;53.666;9.700;2023-11-21T08:10:55;15.30;;;7.78;;
64197;SDS011;50512;53.666;9.700;2023-11-21T08:13:22;14.45;;;7.07;;
64197;SDS011;50512;53.666;9.700;2023-11-21T08:15:49;16.60;;;6.95;;
64197;SDS011;50512;53.666;9.700;2023-11-21T08:18:15;15.40;;;6.97;;
64197;SDS011;50512;53.666;9.700;2023-11-21T08:20:42;14.80;;;7.15;;
64197;SDS011;50512;53.666;9.700;2023-11-21T08:23:14;15.43;;;7.35;;
64197;SDS011;50512;53.666;9.700;2023-11-21T08:25:41;14.15;;;8.00;;
64197;SDS011;50512;53.666;9.700;2023-11-21T08:28:08;13.25;;;6.60;;
64197;SDS011;50512;53.666;9.700;2023-11-21T08:30:35;15.10;;;6.80;;
64197;SDS011;50512;53.666;9.700;2023-11-21T08:33:01;14.68;;;6.57;;
64197;SDS011;50512;53.666;9.700;2023-11-21T08:35:28;11.45;;;6.00;;
64197;SDS011;50512;53.666;9.700;2023-11-21T08:37:54;15.43;;;7.32;;
64197;SDS011;50512;53.666;9.700;2023-11-21T08:40:23;13.68;;;6.95;;
64197;SDS011;50512;53.666;9.700;2023-11-21T08:42:50;14.13;;;6.60;;
64197;SDS011;50512;53.666;9.700;2023-11-21T08:45:17;12.57;;;6.40;;
64197;SDS011;50512;53.666;9.700;2023-11-21T08:47:44;12.23;;;6.50;;
64197;SDS011;50512;53.666;9.700;2023-11-21T08:50:11;12.88;;;5.88;;
64197;SDS011;50512;53.666;9.700;2023-11-21T08:52:38;12.35;;;5.40;;
64197;SDS011;50512;53.666;9.700;2023-11-21T08:55:05;11.43;;;5.68;;
64197;SDS011;50512;53.666;9.700;2023-11-21T08:57:35;11.95;;;6.43;;
64197;SDS011;50512;53.666;9.700;2023-11-21T09:00:01;9.55;;;5.68;;
64197;SDS011;50512;53.666;9.700;2023-11-21T09:02:30;9.85;;;5.35;;
64197;SDS011;50512;53.666;9.700;2023-11-21T09:04:56;12.80;;;5.82;;
64197;SDS011;50512;53.666;9.700;2023-11-21T09:07:24;14.25;;;7.10;;
64197;SDS011;50512;53.666;9.700;2023-11-21T09:09:50;11.57;;;5.90;;
64197;SDS011;50512;53.666;9.700;2023-11-21T09:12:17;11.90;;;5.75;;
64197;SDS011;50512;53.666;9.700;2023-11-21T09:14:45;15.82;;;6.18;;
64197;SDS011;50512;53.666;9.700;2023-11-21T09:17:12;17.02;;;6.20;;
64197;SDS011;50512;53.666;9.700;2023-11-21T09:19:39;12.60;;;6.40;;
64197;SDS011;50512;53.666;9.700;2023-11-21T09:22:06;13.27;;;7.35;;
64197;SDS011;50512;53.666;9.700;2023-11-21T09:24:33;13.88;;;6.53;;
64197;SDS011;50512;53.666;9.700;2023-11-21T09:26:59;12.27;;;5.72;;
64197;SDS011;50512;53.666;9.700;2023-11-21T09:29:26;11.63;;;6.18;;
64197;SDS011;50512;53.666;9.700;2023-11-21T09:31:55;10.35;;;5.50;;
64197;SDS011;50512;53.666;9.700;2023-11-21T09:34:24;15.30;;;5.53;;
64197;SDS011;50512;53.666;9.700;2023-11-21T09:36:51;10.57;;;5.65;;
64197;SDS011;50512;53.666;9.700;2023-11-21T09:39:18;9.55;;;5.22;;
64197;SDS011;50512;53.666;9.700;2023-11-21T09:41:46;11.18;;;5.63;;
64197;SDS011;50512;53.666;9.700;2023-11-21T09:44:17;11.27;;;5.03;;
64197;SDS011;50512;53.666;9.700;2023-11-21T09:46:44;7.40;;;4.15;;
64197;SDS011;50512;53.666;9.700;2023-11-21T09:49:15;8.45;;;4.93;;
64197;SDS011;50512;53.666;9.700;2023-11-21T09:51:46;8.00;;;4.30;;
64197;SDS011;50512;53.666;9.700;2023-11-21T09:54:13;7.10;;;3.85;;
64197;SDS011;50512;53.666;9.700;2023-11-21T09:56:43;8.10;;;4.75;;
64197;SDS011;50512;53.666;9.700;2023-11-21T09:59:10;11.15;;;4.28;;
64197;SDS011;50512;53.666;9.700;2023-11-21T10:01:41;8.30;;;4.20;;
64197;SDS011;50512;53.666;9.700;2023-11-21T10:04:08;9.20;;;4.70;;
64197;SDS011;50512;53.666;9.700;2023-11-21T10:06:38;8.23;;;4.50;;
64197;SDS011;50512;53.666;9.700;2023-11-21T10:09:06;6.60;;;3.92;;
64197;SDS011;50512;53.666;9.700;2023-11-21T10:11:36;6.72;;;3.47;;
64197;SDS011;50512;53.666;9.700;2023-11-21T10:14:06;8.07;;;3.53;;
64197;SDS011;50512;53.666;9.700;2023-11-21T10:16:35;8.35;;;4.03;;
64197;SDS011;50512;53.666;9.700;2023-11-21T10:19:02;6.25;;;3.40;;
64197;SDS011;50512;53.666;9.700;2023-11-21T10:21:31;7.22;;;3.67;;
64197;SDS011;50512;53.666;9.700;2023-11-21T10:23:59;6.97;;;3.80;;
64197;SDS011;50512;53.666;9.700;2023-11-21T10:26:26;6.38;;;3.58;;
64197;SDS011;50512;53.666;9.700;2023-11-21T10:28:56;6.18;;;3.15;;
64197;SDS011;50512;53.666;9.700;2023-11-21T10:31:23;6.82;;;3.90;;
64197;SDS011;50512;53.666;9.700;2023-11-21T10:33:50;7.05;;;2.80;;
64197;SDS011;50512;53.666;9.700;2023-11-21T10:36:24;5.20;;;3.03;;
64197;SDS011;50512;53.666;9.700;2023-11-21T10:38:52;4.55;;;2.60;;
64197;SDS011;50512;53.666;9.700;2023-11-21T10:41:20;6.05;;;2.85;;
64197;SDS011;50512;53.666;9.700;2023-11-21T10:43:47;3.35;;;2.00;;
64197;SDS011;50512;53.666;9.700;2023-11-21T10:46:14;6.65;;;2.30;;
64197;SDS011;50512;53.666;9.700;2023-11-21T10:48:41;4.55;;;2.22;;
64197;SDS011;50512;53.666;9.700;2023-11-21T10:51:08;7.38;;;2.00;;
64197;SDS011;50512;53.666;9.700;2023-11-21T10:53:38;3.03;;;1.52;;
64197;SDS011;50512;53.666;9.700;2023-11-21T10:56:05;3.33;;;1.88;;
64197;SDS011;50512;53.666;9.700;2023-11-21T10:58:36;5.72;;;1.80;;
64197;SDS011;50512;53.666;9.700;2023-11-21T11:01:06;4.60;;;1.90;;
64197;SDS011;50512;53.666;9.700;2023-11-21T11:03:32;3.13;;;1.90;;
64197;SDS011;50512;53.666;9.700;2023-11-21T11:06:02;6.70;;;2.75;;
64197;SDS011;50512;53.666;9.700;2023-11-21T11:08:32;3.30;;;2.03;;
64197;SDS011;50512;53.666;9.700;2023-11-21T11:11:01;5.15;;;2.50;;
64197;SDS011;50512;53.666;9.700;2023-11-21T11:13:27;4.50;;;2.15;;
64197;SDS011;50512;53.666;9.700;2023-11-21T11:15:58;3.65;;;1.80;;
64197;SDS011;50512;53.666;9.700;2023-11-21T11:18:26;3.38;;;1.90;;
64197;SDS011;50512;53.666;9.700;2023-11-21T11:20:53;4.97;;;2.53;;
64197;SDS011;50512;53.666;9.700;2023-11-21T11:23:30;6.15;;;2.45;;
64197;SDS011;50512;53.666;9.700;2023-11-21T11:26:12;5.00;;;2.60;;
64197;SDS011;50512;53.666;9.700;2023-11-21T11:28:51;4.43;;;2.50;;
64197;SDS011;50512;53.666;9.700;2023-11-21T11:33:57;5.88;;;3.20;;
64197;SDS011;50512;53.666;9.700;2023-11-21T11:36:29;5.93;;;3.22;;
64197;SDS011;50512;53.666;9.700;2023-11-21T11:39:02;4.00;;;2.55;;
64197;SDS011;50512;53.666;9.700;2023-11-21T11:41:30;8.85;;;3.53;;
64197;SDS011;50512;53.666;9.700;2023-11-21T11:43:59;6.80;;;3.47;;
64197;SDS011;50512;53.666;9.700;2023-11-21T11:49:12;5.45;;;3.25;;
64197;SDS011;50512;53.666;9.700;2023-11-21T11:54:50;7.45;;;3.58;;
64197;SDS011;50512;53.666;9.700;2023-11-21T11:57:17;6.97;;;3.60;;
64197;SDS011;50512;53.666;9.700;2023-11-21T12:02:42;4.85;;;2.95;;
64197;SDS011;50512;53.666;9.700;2023-11-21T12:05:11;4.85;;;2.72;;
64197;SDS011;50512;53.666;9.700;2023-11-21T12:07:41;4.95;;;3.10;;
64197;SDS011;50512;53.666;9.700;2023-11-21T12:10:10;4.97;;;2.88;;
64197;SDS011;50512;53.666;9.700;2023-11-21T12:12:41;8.48;;;3.08;;
64197;SDS011;50512;53.666;9.700;2023-11-21T12:15:09;4.78;;;2.60;;
64197;SDS011;50512;53.666;9.700;2023-11-21T12:17:35;5.32;;;3.15;;
64197;SDS011;50512;53.666;9.700;2023-11-21T12:20:04;5.65;;;2.75;;
64197;SDS011;50512;53.666;9.700;2023-11-21T12:22:39;4.15;;;2.22;;
64197;SDS011;50512;53.666;9.700;2023-11-21T12:25:07;4.70;;;2.58;;
64197;SDS011;50512;53.666;9.700;2023-11-21T12:27:34;4.63;;;2.33;;
64197;SDS011;50512;53.666;9.700;2023-11-21T12:30:01;5.38;;;2.75;;
64197;SDS011;50512;53.666;9.700;2023-11-21T12:32:27;5.88;;;2.80;;
64197;SDS011;50512;53.666;9.700;2023-11-21T12:34:54;5.50;;;2.58;;
64197;SDS011;50512;53.666;9.700;2023-11-21T12:37:22;5.35;;;2.65;;
64197;SDS011;50512;53.666;9.700;2023-11-21T12:39:48;4.22;;;2.60;;
64197;SDS011;50512;53.666;9.700;2023-11-21T12:42:15;6.82;;;3.13;;
64197;SDS011;50512;53.666;9.700;2023-11-21T12:44:42;4.80;;;2.72;;
64197;SDS011;50512;53.666;9.700;2023-11-21T12:47:15;5.38;;;3.28;;
64197;SDS011;50512;53.666;9.700;2023-11-21T12:49:43;6.78;;;3.70;;
64197;SDS011;50512;53.666;9.700;2023-11-21T12:52:09;8.73;;;4.45;;
64197;SDS011;50512;53.666;9.700;2023-11-21T12:54:38;5.65;;;2.97;;
64197;SDS011;50512;53.666;9.700;2023-11-21T12:57:04;5.97;;;3.33;;
64197;SDS011;50512;53.666;9.700;2023-11-21T12:59:33;6.65;;;3.22;;
64197;SDS011;50512;53.666;9.700;2023-11-21T13:02:00;7.10;;;3.15;;
64197;SDS011;50512;53.666;9.700;2023-11-21T13:04:30;7.38;;;3.45;;
64197;SDS011;50512;53.666;9.700;2023-11-21T13:07:02;4.90;;;2.83;;
64197;SDS011;50512;53.666;9.700;2023-11-21T13:09:31;6.20;;;3.55;;
64197;SDS011;50512;53.666;9.700;2023-11-21T13:12:00;6.85;;;3.10;;
64197;SDS011;50512;53.666;9.700;2023-11-21T13:14:28;5.97;;;3.00;;
64197;SDS011;50512;53.666;9.700;2023-11-21T13:16:56;6.43;;;3.28;;
64197;SDS011;50512;53.666;9.700;2023-11-21T13:19:23;5.53;;;3.47;;
64197;SDS011;50512;53.666;9.700;2023-11-21T13:21:49;6.80;;;3.20;;
64197;SDS011;50512;53.666;9.700;2023-11-21T13:24:16;7.18;;;3.80;;
64197;SDS011;50512;53.666;9.700;2023-11-21T13:26:43;6.40;;;3.35;;
64197;SDS011;50512;53.666;9.700;2023-11-21T13:29:12;6.97;;;3.45;;
64197;SDS011;50512;53.666;9.700;2023-11-21T13:31:38;5.00;;;3.00;;
64197;SDS011;50512;53.666;9.700;2023-11-21T13:34:05;5.55;;;2.85;;
64197;SDS011;50512;53.666;9.700;2023-11-21T13:36:33;4.80;;;2.90;;
64197;SDS011;50512;53.666;9.700;2023-11-21T13:39:00;4.28;;;2.50;;
64197;SDS011;50512;53.666;9.700;2023-11-21T13:41:32;6.20;;;3.20;;
64197;SDS011;50512;53.666;9.700;2023-11-21T13:43:58;5.15;;;2.85;;
64197;SDS011;50512;53.666;9.700;2023-11-21T13:46:35;5.90;;;3.42;;
64197;SDS011;50512;53.666;9.700;2023-11-21T13:49:02;4.70;;;2.60;;
64197;SDS011;50512;53.666;9.700;2023-11-21T13:51:30;7.18;;;3.15;;
64197;SDS011;50512;53.666;9.700;2023-11-21T13:54:04;6.75;;;3.38;;
64197;SDS011;50512;53.666;9.700;2023-11-21T13:56:34;5.93;;;3.58;;
64197;SDS011;50512;53.666;9.700;2023-11-21T13:59:00;7.22;;;3.53;;
64197;SDS011;50512;53.666;9.700;2023-11-21T14:01:35;7.30;;;3.92;;
64197;SDS011;50512;53.666;9.700;2023-11-21T14:04:19;6.20;;;3.50;;
64197;SDS011;50512;53.666;9.700;2023-11-21T14:06:59;7.95;;;4.15;;
64197;SDS011;50512;53.666;9.700;2023-11-21T14:09:45;7.43;;;3.78;;
64197;SDS011;50512;53.666;9.700;2023-11-21T14:12:14;11.93;;;3.60;;
64197;SDS011;50512;53.666;9.700;2023-11-21T14:14:41;7.15;;;3.63;;
64197;SDS011;50512;53.666;9.700;2023-11-21T14:17:10;5.45;;;3.30;;
64197;SDS011;50512;53.666;9.700;2023-11-21T14:19:37;7.95;;;3.63;;
64197;SDS011;50512;53.666;9.700;2023-11-21T14:22:06;9.40;;;3.17;;
64197;SDS011;50512;53.666;9.700;2023-11-21T14:24:34;6.28;;;3.55;;
64197;SDS011;50512;53.666;9.700;2023-11-21T14:27:01;7.45;;;3.78;;
64197;SDS011;50512;53.666;9.700;2023-11-21T14:29:28;6.38;;;3.83;;
64197;SDS011;50512;53.666;9.700;2023-11-21T14:31:56;6.22;;;3.42;;
64197;SDS011;50512;53.666;9.700;2023-11-21T14:34:24;6.03;;;3.88;;
64197;SDS011;50512;53.666;9.700;2023-11-21T14:36:51;7.95;;;3.58;;
64197;SDS011;50512;53.666;9.700;2023-11-21T14:39:18;8.02;;;3.83;;
64197;SDS011;50512;53.666;9.700;2023-11-21T14:41:48;7.20;;;4.10;;
64197;SDS011;50512;53.666;9.700;2023-11-21T14:44:15;6.47;;;3.90;;
64197;SDS011;50512;53.666;9.700;2023-11-21T14:46:42;6.03;;;3.40;;
64197;SDS011;50512;53.666;9.700;2023-11-21T14:49:11;7.85;;;3.47;;